Terminal Aerodrome Forecast
Issued by NWS

Home | Current Version | Previous Version | Text Only | Print | Product List | Glossary Off
Versions: 1 2 3 4 5 6 7 8 9 10 11 12 13 14

717
FTUS43 KBIS 270937 AAD
TAFJMS
TAF AMD
KJMS 270937Z 2710/2806 06008KT P6SM OVC025
     FM271500 07014KT P6SM OVC040
     FM271800 07017G25KT P6SM OVC100
     FM280300 06012KT P6SM OVC080=

USA.gov is the U.S. government's official web portal to all federal, state and local government web resources and services.